createdAt,value
2018-12-29T00:00:01.659Z,6.5
2018-12-29T00:01:03.024Z,6.5
2018-12-29T00:02:04.389Z,6.5
2018-12-29T00:03:05.750Z,6.5
2018-12-29T00:04:07.117Z,6.6
2018-12-29T00:05:08.476Z,6.6
2018-12-29T00:06:09.840Z,6.4
2018-12-29T00:07:11.205Z,6.5
2018-12-29T00:08:12.570Z,6.4
2018-12-29T00:09:13.934Z,6.3
2018-12-29T00:10:15.296Z,6.3
2018-12-29T00:11:16.660Z,6.3
2018-12-29T00:12:18.021Z,6.3
2018-12-29T00:13:19.548Z,6.3
2018-12-29T00:14:20.845Z,6.2
2018-12-29T00:15:22.208Z,6.2
2018-12-29T00:16:23.580Z,6.1
2018-12-29T00:17:24.938Z,6.0
2018-12-29T00:18:26.300Z,6.1
2018-12-29T00:19:27.664Z,6.1
2018-12-29T00:20:29.027Z,6.1
2018-12-29T00:21:30.397Z,6.2
2018-12-29T00:22:31.760Z,6.2
2018-12-29T00:23:33.120Z,6.2
2018-12-29T00:24:34.483Z,6.2
2018-12-29T00:25:35.848Z,6.3
2018-12-29T00:26:37.212Z,6.3
2018-12-29T00:27:38.578Z,6.3
2018-12-29T00:28:39.945Z,6.5
2018-12-29T00:29:41.307Z,6.5
2018-12-29T00:30:42.672Z,6.4
2018-12-29T00:31:44.034Z,6.4
2018-12-29T00:32:45.405Z,6.4
2018-12-29T00:33:46.763Z,6.5
2018-12-29T00:34:48.123Z,6.6
2018-12-29T00:35:49.489Z,6.5
2018-12-29T00:36:50.855Z,6.5
2018-12-29T00:37:52.216Z,6.6
2018-12-29T00:38:53.584Z,6.5
2018-12-29T00:39:54.946Z,6.6
2018-12-29T00:40:56.310Z,6.5
2018-12-29T00:41:57.674Z,6.5
2018-12-29T00:42:59.038Z,6.4
2018-12-29T00:44:00.403Z,6.3
2018-12-29T00:45:02.701Z,6.5
2018-12-29T00:46:03.094Z,6.5
2018-12-29T00:47:04.457Z,6.4
2018-12-29T00:48:05.819Z,6.5
2018-12-29T00:49:07.185Z,6.5
2018-12-29T00:50:08.547Z,6.4
2018-12-29T00:51:09.911Z,6.5
2018-12-29T00:52:11.303Z,6.3
2018-12-29T00:53:12.664Z,6.3
2018-12-29T00:54:14.025Z,6.2
2018-12-29T00:55:15.388Z,6.2
2018-12-29T00:56:16.755Z,6.2
2018-12-29T00:57:18.118Z,6.2
2018-12-29T00:58:19.482Z,6.1
2018-12-29T00:59:20.845Z,6.2
2018-12-29T01:00:22.205Z,6.1
2018-12-29T01:01:23.569Z,6.1
2018-12-29T01:02:24.930Z,6.1
2018-12-29T01:03:26.294Z,6.2
2018-12-29T01:04:27.658Z,6.3
2018-12-29T01:05:29.022Z,6.3
2018-12-29T01:06:30.387Z,6.2
2018-12-29T01:07:31.748Z,6.3
2018-12-29T01:08:33.113Z,6.4
2018-12-29T01:09:34.488Z,6.3
2018-12-29T01:10:35.854Z,6.3
2018-12-29T01:11:37.216Z,6.3
2018-12-29T01:12:38.581Z,6.3
2018-12-29T01:13:39.943Z,6.3
2018-12-29T01:14:41.303Z,6.3
2018-12-29T01:15:42.671Z,6.4
2018-12-29T01:16:44.033Z,6.4
2018-12-29T01:17:45.398Z,6.4
2018-12-29T01:18:46.760Z,6.4
2018-12-29T01:19:48.124Z,6.4
2018-12-29T01:20:49.563Z,6.5
2018-12-29T01:21:50.920Z,6.6
2018-12-29T01:22:52.284Z,6.5
2018-12-29T01:23:53.645Z,6.5
2018-12-29T01:24:55.010Z,6.6
2018-12-29T01:25:56.374Z,6.4
2018-12-29T01:26:57.745Z,6.4
2018-12-29T01:27:59.102Z,6.5
2018-12-29T01:29:00.467Z,6.5
2018-12-29T01:30:01.824Z,6.3
2018-12-29T01:31:03.189Z,6.4
2018-12-29T01:32:04.555Z,6.4
2018-12-29T01:33:05.916Z,6.4
2018-12-29T01:34:07.279Z,6.3
2018-12-29T01:35:08.643Z,6.4
2018-12-29T01:36:10.009Z,6.3
2018-12-29T01:37:11.368Z,6.4
2018-12-29T01:38:12.732Z,6.4
2018-12-29T01:39:14.096Z,6.3
2018-12-29T01:40:15.461Z,6.5
2018-12-29T01:41:16.820Z,6.5
2018-12-29T01:42:18.186Z,6.5
2018-12-29T01:43:19.551Z,6.5
2018-12-29T01:44:20.914Z,6.6
2018-12-29T01:45:22.276Z,6.6
2018-12-29T01:46:23.640Z,6.6
2018-12-29T01:47:25.001Z,6.7
2018-12-29T01:48:26.369Z,6.6
2018-12-29T01:49:27.732Z,6.7
2018-12-29T01:50:29.093Z,6.7
2018-12-29T01:51:30.453Z,6.8
2018-12-29T01:52:31.817Z,6.6
2018-12-29T01:53:33.180Z,6.7
2018-12-29T01:54:34.543Z,6.7
2018-12-29T01:55:35.910Z,6.6
2018-12-29T01:56:37.272Z,6.7
2018-12-29T01:57:38.637Z,6.7
2018-12-29T01:58:39.998Z,6.7
2018-12-29T01:59:41.361Z,6.8
2018-12-29T02:00:42.729Z,6.6
2018-12-29T02:01:44.092Z,6.8
2018-12-29T02:02:45.455Z,6.7
2018-12-29T02:03:46.820Z,6.8
2018-12-29T02:04:48.180Z,6.8
2018-12-29T02:05:49.571Z,6.7
2018-12-29T02:06:50.937Z,6.7
2018-12-29T02:07:52.299Z,6.7
2018-12-29T02:08:53.664Z,6.7
2018-12-29T02:09:55.027Z,6.8
2018-12-29T02:10:56.392Z,6.7
2018-12-29T02:11:57.753Z,6.8
2018-12-29T02:12:59.169Z,6.8
2018-12-29T02:14:00.477Z,6.6
2018-12-29T02:15:01.840Z,6.6
2018-12-29T02:16:03.207Z,6.6
2018-12-29T02:17:04.573Z,6.7
2018-12-29T02:18:05.935Z,6.6
2018-12-29T02:19:07.299Z,6.5
2018-12-29T02:20:08.664Z,6.6
2018-12-29T02:21:10.025Z,6.5
2018-12-29T02:22:11.387Z,6.5
2018-12-29T02:23:12.751Z,6.5
2018-12-29T02:24:14.113Z,6.5
2018-12-29T02:25:15.479Z,6.5
2018-12-29T02:26:16.842Z,6.6
2018-12-29T02:27:18.205Z,6.5
2018-12-29T02:28:19.566Z,6.6
2018-12-29T02:29:20.929Z,6.7
2018-12-29T02:30:22.296Z,6.6
2018-12-29T02:31:23.662Z,6.7
2018-12-29T02:32:25.026Z,6.7
2018-12-29T02:33:26.388Z,6.7
2018-12-29T02:34:27.748Z,6.7
2018-12-29T02:35:29.111Z,6.7
2018-12-29T02:36:30.473Z,6.6
2018-12-29T02:37:31.840Z,6.7
2018-12-29T02:38:33.206Z,6.6
2018-12-29T02:39:34.586Z,6.6
2018-12-29T02:40:35.952Z,6.8
2018-12-29T02:41:37.314Z,6.7
2018-12-29T02:42:38.678Z,6.8
2018-12-29T02:43:40.046Z,6.8
2018-12-29T02:44:41.408Z,6.8
2018-12-29T02:45:42.773Z,6.8
2018-12-29T02:46:44.137Z,6.8
2018-12-29T02:47:45.499Z,6.8
2018-12-29T02:48:46.862Z,6.7
2018-12-29T02:49:48.226Z,6.8
2018-12-29T02:50:49.588Z,6.9
2018-12-29T02:51:50.953Z,6.9
2018-12-29T02:52:52.317Z,6.8
2018-12-29T02:53:53.692Z,6.8
2018-12-29T02:54:55.043Z,6.9
2018-12-29T02:55:56.402Z,6.9
2018-12-29T02:56:57.770Z,6.9
2018-12-29T02:57:59.130Z,6.8
2018-12-29T02:59:00.509Z,6.7
2018-12-29T03:00:01.857Z,6.8
2018-12-29T03:01:03.220Z,6.8
2018-12-29T03:02:04.581Z,6.8
2018-12-29T03:03:05.947Z,6.7
2018-12-29T03:04:07.308Z,6.8
2018-12-29T03:05:08.672Z,6.7
2018-12-29T03:06:10.034Z,6.8
2018-12-29T03:07:11.399Z,6.8
2018-12-29T03:08:12.762Z,6.8
2018-12-29T03:09:14.123Z,6.8
2018-12-29T03:10:15.494Z,6.7
2018-12-29T03:11:16.854Z,6.8
2018-12-29T03:12:18.214Z,6.7
2018-12-29T03:13:19.576Z,6.8
2018-12-29T03:14:20.944Z,6.8
2018-12-29T03:15:22.311Z,6.7
2018-12-29T03:16:23.675Z,6.7
2018-12-29T03:17:25.029Z,6.7
2018-12-29T03:18:26.397Z,6.7
2018-12-29T03:19:27.762Z,6.7
2018-12-29T03:20:29.126Z,6.7
2018-12-29T03:21:30.495Z,6.6
2018-12-29T03:22:31.856Z,6.6
2018-12-29T03:23:33.216Z,6.7
2018-12-29T03:24:34.577Z,6.7
2018-12-29T03:25:35.941Z,6.6
2018-12-29T03:26:37.303Z,6.6
2018-12-29T03:27:38.668Z,6.6
2018-12-29T03:28:40.033Z,6.7
2018-12-29T03:29:41.398Z,6.7
2018-12-29T03:30:42.760Z,6.6
2018-12-29T03:31:44.132Z,6.6
2018-12-29T03:32:45.488Z,6.6
2018-12-29T03:33:46.854Z,6.6
2018-12-29T03:34:48.216Z,6.7
2018-12-29T03:35:49.579Z,6.6
2018-12-29T03:36:50.947Z,6.6
2018-12-29T03:37:52.305Z,6.7
2018-12-29T03:38:53.676Z,6.6
2018-12-29T03:39:55.041Z,6.6
2018-12-29T03:40:56.399Z,6.6
2018-12-29T03:41:57.763Z,6.6
2018-12-29T03:42:59.127Z,6.6
2018-12-29T03:44:00.494Z,6.6
2018-12-29T03:45:01.855Z,6.6
2018-12-29T03:46:03.214Z,6.6
2018-12-29T03:47:04.582Z,6.7
2018-12-29T03:48:05.941Z,6.6
2018-12-29T03:49:07.304Z,6.8
2018-12-29T03:50:08.671Z,6.7
2018-12-29T03:51:10.037Z,6.7
2018-12-29T03:52:11.399Z,6.8
2018-12-29T03:53:12.758Z,6.6
2018-12-29T03:54:14.129Z,6.7
2018-12-29T03:55:15.485Z,6.6
2018-12-29T03:56:16.850Z,6.6
2018-12-29T03:57:18.213Z,6.7
2018-12-29T03:58:19.577Z,6.7
2018-12-29T03:59:20.940Z,6.6
2018-12-29T04:00:22.304Z,6.7
2018-12-29T04:01:23.671Z,6.7
2018-12-29T04:02:25.032Z,6.7
2018-12-29T04:03:26.394Z,6.8
2018-12-29T04:04:27.757Z,6.7
2018-12-29T04:05:29.120Z,6.8
2018-12-29T04:06:30.482Z,6.7
2018-12-29T04:07:31.847Z,6.8
2018-12-29T04:08:33.211Z,6.8
2018-12-29T04:09:34.573Z,6.9
2018-12-29T04:10:35.937Z,6.9
2018-12-29T04:11:37.301Z,6.8
2018-12-29T04:12:38.671Z,6.7
2018-12-29T04:13:40.032Z,6.8
2018-12-29T04:14:41.392Z,7.0
2018-12-29T04:15:42.759Z,6.9
2018-12-29T04:16:44.119Z,7.0
2018-12-29T04:17:45.482Z,6.9
2018-12-29T04:18:46.850Z,7.0
2018-12-29T04:19:48.213Z,7.0
2018-12-29T04:20:49.576Z,7.0
2018-12-29T04:21:50.938Z,7.0
2018-12-29T04:22:52.302Z,7.0
2018-12-29T04:23:53.668Z,7.1
2018-12-29T04:24:55.035Z,7.0
2018-12-29T04:25:56.399Z,7.1
2018-12-29T04:26:57.759Z,7.1
2018-12-29T04:27:59.221Z,7.1
2018-12-29T04:29:00.612Z,7.1
2018-12-29T04:30:01.976Z,7.1
2018-12-29T04:31:03.341Z,7.0
2018-12-29T04:32:04.702Z,6.9
2018-12-29T04:33:06.066Z,7.0
2018-12-29T04:34:07.430Z,7.0
2018-12-29T04:35:08.793Z,7.0
2018-12-29T04:36:10.157Z,6.9
2018-12-29T04:37:11.521Z,7.0
2018-12-29T04:38:12.882Z,6.9
2018-12-29T04:39:14.244Z,7.0
2018-12-29T04:40:15.613Z,7.0
2018-12-29T04:41:16.981Z,7.0
2018-12-29T04:42:18.350Z,6.9
2018-12-29T04:43:19.710Z,7.0
2018-12-29T04:44:21.067Z,6.9
2018-12-29T04:45:22.432Z,6.9
2018-12-29T04:46:23.796Z,6.9
2018-12-29T04:47:25.161Z,6.9
2018-12-29T04:48:26.525Z,6.8
2018-12-29T04:49:27.883Z,6.8
2018-12-29T04:50:29.246Z,6.8
2018-12-29T04:51:30.610Z,6.8
2018-12-29T04:52:31.974Z,6.7
2018-12-29T04:53:33.340Z,6.6
2018-12-29T04:54:34.708Z,6.5
2018-12-29T04:55:36.069Z,6.7
2018-12-29T04:56:37.430Z,6.6
2018-12-29T04:57:38.794Z,6.7
2018-12-29T04:58:40.159Z,6.5
2018-12-29T04:59:41.523Z,6.5
2018-12-29T05:00:42.888Z,6.6
2018-12-29T05:01:44.249Z,6.5
2018-12-29T05:02:45.619Z,6.5
2018-12-29T05:03:46.979Z,6.4
2018-12-29T05:04:48.344Z,6.3
2018-12-29T05:05:49.706Z,6.4
2018-12-29T05:06:51.072Z,6.4
2018-12-29T05:07:52.435Z,6.3
2018-12-29T05:08:53.804Z,6.4
2018-12-29T05:09:55.168Z,6.4
2018-12-29T05:10:56.530Z,6.3
2018-12-29T05:11:57.891Z,6.3
2018-12-29T05:12:59.258Z,6.2
2018-12-29T05:14:00.617Z,6.2
2018-12-29T05:15:01.984Z,6.2
2018-12-29T05:16:03.348Z,6.3
2018-12-29T05:17:04.711Z,6.2
2018-12-29T05:18:06.070Z,6.3
2018-12-29T05:19:07.433Z,6.3
2018-12-29T05:20:08.793Z,6.2
2018-12-29T05:21:10.161Z,6.3
2018-12-29T05:22:11.524Z,6.3
2018-12-29T05:23:12.887Z,6.3
2018-12-29T05:24:14.250Z,6.3
2018-12-29T05:25:15.617Z,6.3
2018-12-29T05:26:16.976Z,6.3
2018-12-29T05:27:18.340Z,6.2
2018-12-29T05:28:19.704Z,6.2
2018-12-29T05:29:21.067Z,6.2
2018-12-29T05:30:22.432Z,6.4
2018-12-29T05:31:23.799Z,6.3
2018-12-29T05:32:25.166Z,6.4
2018-12-29T05:33:26.527Z,6.3
2018-12-29T05:34:27.886Z,6.4
2018-12-29T05:35:29.256Z,6.5
2018-12-29T05:36:30.613Z,6.4
2018-12-29T05:37:31.977Z,6.5
2018-12-29T05:38:33.341Z,6.6
2018-12-29T05:39:34.717Z,6.5
2018-12-29T05:40:36.078Z,6.7
2018-12-29T05:41:37.441Z,6.7
2018-12-29T05:42:38.803Z,6.6
2018-12-29T05:43:40.166Z,6.6
2018-12-29T05:44:41.532Z,6.6
2018-12-29T05:45:42.897Z,6.6
2018-12-29T05:46:44.259Z,6.6
2018-12-29T05:47:45.623Z,6.8
2018-12-29T05:48:46.986Z,6.8
2018-12-29T05:49:48.349Z,6.8
2018-12-29T05:50:49.712Z,6.7
2018-12-29T05:51:51.077Z,6.6
2018-12-29T05:52:52.445Z,6.7
2018-12-29T05:53:53.810Z,6.7
2018-12-29T05:54:55.166Z,6.7
2018-12-29T05:55:56.532Z,6.7
2018-12-29T05:56:57.895Z,6.8
2018-12-29T05:57:59.262Z,6.7
2018-12-29T05:59:00.627Z,6.8
2018-12-29T06:00:01.995Z,6.7
2018-12-29T06:01:03.352Z,6.7
2018-12-29T06:02:04.718Z,6.8
2018-12-29T06:03:06.076Z,6.8
2018-12-29T06:04:07.442Z,6.8
2018-12-29T06:05:08.805Z,6.9
2018-12-29T06:06:10.169Z,6.7
2018-12-29T06:07:11.531Z,6.8
2018-12-29T06:08:12.891Z,6.8
2018-12-29T06:09:14.254Z,6.8
2018-12-29T06:10:15.620Z,6.7
2018-12-29T06:11:16.983Z,6.8
2018-12-29T06:12:18.346Z,6.8
2018-12-29T06:13:19.710Z,6.8
2018-12-29T06:14:21.074Z,6.8
2018-12-29T06:15:22.437Z,6.7
2018-12-29T06:16:27.658Z,6.7
2018-12-29T06:17:25.129Z,6.7
2018-12-29T06:18:26.491Z,6.7
2018-12-29T06:19:27.857Z,6.7
2018-12-29T06:20:29.222Z,6.7
2018-12-29T06:21:30.594Z,6.7
2018-12-29T06:22:31.948Z,6.8
2018-12-29T06:23:33.306Z,6.8
2018-12-29T06:24:34.670Z,6.7
2018-12-29T06:25:36.033Z,6.8
2018-12-29T06:26:37.402Z,6.8
2018-12-29T06:27:38.761Z,6.8
2018-12-29T06:28:40.131Z,6.8
2018-12-29T06:29:41.489Z,6.8
2018-12-29T06:30:42.855Z,6.8
2018-12-29T06:31:44.242Z,6.8
2018-12-29T06:32:45.579Z,6.9
2018-12-29T06:33:46.942Z,6.8
2018-12-29T06:34:48.307Z,6.9
2018-12-29T06:35:49.669Z,6.9
2018-12-29T06:36:51.032Z,6.9
2018-12-29T06:37:52.396Z,6.8
2018-12-29T06:38:53.760Z,6.9
2018-12-29T06:39:55.121Z,7.0
2018-12-29T06:40:56.484Z,6.9
2018-12-29T06:41:57.848Z,6.9
2018-12-29T06:42:59.213Z,7.0
2018-12-29T06:44:00.577Z,6.9
2018-12-29T06:45:01.942Z,7.0
2018-12-29T06:46:03.301Z,6.9
2018-12-29T06:47:04.666Z,7.0
2018-12-29T06:48:06.027Z,7.0
2018-12-29T06:49:07.394Z,6.9
2018-12-29T06:50:08.759Z,7.0
2018-12-29T06:51:10.123Z,7.0
2018-12-29T06:52:11.483Z,7.0
2018-12-29T06:53:12.849Z,6.9
2018-12-29T06:54:14.210Z,7.0
2018-12-29T06:55:15.575Z,7.0
2018-12-29T06:56:16.941Z,7.0
2018-12-29T06:57:18.305Z,7.0
2018-12-29T06:58:19.663Z,7.0
2018-12-29T06:59:21.028Z,7.0
2018-12-29T07:00:22.391Z,7.1
2018-12-29T07:01:23.755Z,7.0
2018-12-29T07:02:25.121Z,6.9
2018-12-29T07:03:26.483Z,7.0
2018-12-29T07:04:27.847Z,7.0
2018-12-29T07:05:29.208Z,6.9
2018-12-29T07:06:30.583Z,7.0
2018-12-29T07:07:31.941Z,7.0
2018-12-29T07:08:33.303Z,7.0
2018-12-29T07:09:34.665Z,7.1
2018-12-29T07:10:36.026Z,7.1
2018-12-29T07:11:38.618Z,7.1
2018-12-29T07:12:38.720Z,7.2
2018-12-29T07:13:40.083Z,7.2
2018-12-29T07:14:41.444Z,7.3
2018-12-29T07:15:42.809Z,7.3
2018-12-29T07:16:44.172Z,7.2
2018-12-29T07:17:45.537Z,7.2
2018-12-29T07:18:46.904Z,7.2
2018-12-29T07:19:48.269Z,7.3
2018-12-29T07:20:49.636Z,7.2
2018-12-29T07:21:50.998Z,7.2
2018-12-29T07:22:52.366Z,7.2
2018-12-29T07:23:53.733Z,7.2
2018-12-29T07:24:55.098Z,7.3
2018-12-29T07:25:56.466Z,7.3
2018-12-29T07:26:57.829Z,7.2
2018-12-29T07:27:59.192Z,7.3
2018-12-29T07:29:00.568Z,7.2
2018-12-29T07:30:01.932Z,7.4
2018-12-29T07:31:03.302Z,7.4
2018-12-29T07:32:04.667Z,7.3
2018-12-29T07:33:06.036Z,7.2
2018-12-29T07:34:07.399Z,7.3
2018-12-29T07:35:08.763Z,7.3
2018-12-29T07:36:10.128Z,7.2
2018-12-29T07:37:11.492Z,7.3
2018-12-29T07:38:12.858Z,7.3
2018-12-29T07:39:14.230Z,7.3
2018-12-29T07:40:15.597Z,7.3
2018-12-29T07:41:16.960Z,7.3
2018-12-29T07:42:18.324Z,7.4
2018-12-29T07:43:19.689Z,7.5
2018-12-29T07:44:21.053Z,7.5
2018-12-29T07:45:22.422Z,7.5
2018-12-29T07:46:23.809Z,7.4
2018-12-29T07:47:25.159Z,7.5
2018-12-29T07:48:26.524Z,7.5
2018-12-29T07:49:27.893Z,7.5
2018-12-29T07:50:29.275Z,7.5
2018-12-29T07:51:30.644Z,7.5
2018-12-29T07:52:32.016Z,7.5
2018-12-29T07:53:33.386Z,7.5
2018-12-29T07:54:34.754Z,7.5
2018-12-29T07:55:36.119Z,7.6
2018-12-29T07:56:37.483Z,7.6
2018-12-29T07:57:38.852Z,7.5
2018-12-29T07:58:40.218Z,7.6
2018-12-29T07:59:41.584Z,7.5
2018-12-29T08:00:42.956Z,7.6
2018-12-29T08:01:44.323Z,7.5
2018-12-29T08:02:45.689Z,7.6
2018-12-29T08:03:47.057Z,7.5
2018-12-29T08:04:48.421Z,7.4
2018-12-29T08:05:49.787Z,7.5
2018-12-29T08:06:51.155Z,7.4
2018-12-29T08:07:52.527Z,7.3
2018-12-29T08:08:53.895Z,7.4
2018-12-29T08:09:55.260Z,7.4
2018-12-29T08:10:56.627Z,7.5
2018-12-29T08:11:57.993Z,7.3
2018-12-29T08:12:59.360Z,7.3
2018-12-29T08:14:00.793Z,7.5
2018-12-29T08:15:02.102Z,7.6
2018-12-29T08:16:03.468Z,7.6
2018-12-29T08:17:04.834Z,7.6
2018-12-29T08:18:06.200Z,7.6
2018-12-29T08:19:07.571Z,7.6
2018-12-29T08:20:08.935Z,7.6
2018-12-29T08:21:10.318Z,7.6
2018-12-29T08:22:11.681Z,7.7
2018-12-29T08:23:13.052Z,7.7
2018-12-29T08:24:14.417Z,7.7
2018-12-29T08:25:15.790Z,7.7
2018-12-29T08:26:17.152Z,7.6
2018-12-29T08:27:18.522Z,7.6
2018-12-29T08:28:19.890Z,7.6
2018-12-29T08:29:21.263Z,7.5
2018-12-29T08:30:22.626Z,7.5
2018-12-29T08:31:23.988Z,7.5
2018-12-29T08:32:25.356Z,7.6
2018-12-29T08:33:26.722Z,7.6
2018-12-29T08:34:28.089Z,7.5
2018-12-29T08:35:29.459Z,7.6
2018-12-29T08:36:30.827Z,7.6
2018-12-29T08:37:32.198Z,7.7
2018-12-29T08:38:33.564Z,7.7
2018-12-29T08:39:34.930Z,7.6
2018-12-29T08:40:36.295Z,7.6
2018-12-29T08:41:37.664Z,7.7
2018-12-29T08:42:39.032Z,7.7
2018-12-29T08:43:40.398Z,7.7
2018-12-29T08:44:41.769Z,7.7
2018-12-29T08:45:43.136Z,7.6
2018-12-29T08:46:44.503Z,7.6
2018-12-29T08:47:45.870Z,7.6
2018-12-29T08:48:47.238Z,7.5
2018-12-29T08:49:48.606Z,7.5
2018-12-29T08:50:49.978Z,7.5
2018-12-29T08:51:51.355Z,7.5
2018-12-29T08:52:52.755Z,7.5
2018-12-29T08:53:54.125Z,7.5
2018-12-29T08:54:55.491Z,7.5
2018-12-29T08:55:56.861Z,7.6
2018-12-29T08:56:58.230Z,7.5
2018-12-29T08:57:59.596Z,7.5
2018-12-29T08:59:00.969Z,7.5
2018-12-29T09:00:02.369Z,7.5
2018-12-29T09:01:03.734Z,7.6
2018-12-29T09:02:05.100Z,7.6
2018-12-29T09:03:06.470Z,7.5
2018-12-29T09:04:07.835Z,7.6
2018-12-29T09:05:09.207Z,7.5
2018-12-29T09:06:10.572Z,7.6
2018-12-29T09:07:11.939Z,7.6
2018-12-29T09:08:13.308Z,7.6
2018-12-29T09:09:14.706Z,7.7
2018-12-29T09:10:16.071Z,7.7
2018-12-29T09:11:17.445Z,7.6
2018-12-29T09:12:18.833Z,7.7
2018-12-29T09:13:20.202Z,7.7
2018-12-29T09:14:21.569Z,7.7
2018-12-29T09:15:22.937Z,7.8
2018-12-29T09:16:24.310Z,7.8
2018-12-29T09:17:25.677Z,7.9
2018-12-29T09:18:27.042Z,7.8
2018-12-29T09:19:28.418Z,7.7
2018-12-29T09:20:29.783Z,7.8
2018-12-29T09:21:31.150Z,7.9
2018-12-29T09:22:32.520Z,7.9
2018-12-29T09:23:33.889Z,7.9
2018-12-29T09:24:35.255Z,7.8
2018-12-29T09:25:36.624Z,7.8
2018-12-29T09:26:38.007Z,7.8
2018-12-29T09:27:39.378Z,7.8
2018-12-29T09:28:40.746Z,7.9
2018-12-29T09:29:42.113Z,8.0
2018-12-29T09:30:43.480Z,7.9
2018-12-29T09:31:44.861Z,7.8
2018-12-29T09:32:46.228Z,7.8
2018-12-29T09:33:47.597Z,7.7
2018-12-29T09:34:48.967Z,7.7
2018-12-29T09:35:50.334Z,7.8
2018-12-29T09:36:51.715Z,7.7
2018-12-29T09:37:53.083Z,7.9
2018-12-29T09:38:54.453Z,7.9
2018-12-29T09:39:55.821Z,7.9
2018-12-29T09:40:57.204Z,8.0
2018-12-29T09:41:58.569Z,7.9
2018-12-29T09:42:59.935Z,7.9
2018-12-29T09:44:01.302Z,7.9
2018-12-29T09:45:02.672Z,7.9
2018-12-29T09:46:04.041Z,8.0
2018-12-29T09:47:05.411Z,8.0
2018-12-29T09:48:06.780Z,7.9
2018-12-29T09:49:08.151Z,8.1
2018-12-29T09:50:09.536Z,7.9
2018-12-29T09:51:10.906Z,8.0
2018-12-29T09:52:12.295Z,7.9
2018-12-29T09:53:13.664Z,8.1
2018-12-29T09:54:15.039Z,8.0
2018-12-29T09:55:16.419Z,8.0
2018-12-29T09:56:17.791Z,8.0
2018-12-29T09:57:19.160Z,8.1
2018-12-29T09:58:20.528Z,8.0
2018-12-29T09:59:21.908Z,8.0
2018-12-29T10:00:23.274Z,8.0
2018-12-29T10:01:24.643Z,8.1
2018-12-29T10:02:26.019Z,8.0
2018-12-29T10:03:27.390Z,8.0
2018-12-29T10:04:28.757Z,8.1
2018-12-29T10:05:30.125Z,8.2
2018-12-29T10:06:31.498Z,8.3
2018-12-29T10:07:32.867Z,8.3
2018-12-29T10:08:34.240Z,8.3
2018-12-29T10:09:35.611Z,8.4
2018-12-29T10:10:36.983Z,8.4
2018-12-29T10:11:38.350Z,8.3
2018-12-29T10:12:39.719Z,8.3
2018-12-29T10:13:41.482Z,8.3
2018-12-29T10:14:42.847Z,8.1
2018-12-29T10:15:44.220Z,8.0
2018-12-29T10:16:45.590Z,8.0
2018-12-29T10:17:46.963Z,8.0
2018-12-29T10:18:48.332Z,8.1
2018-12-29T10:19:49.703Z,8.1
2018-12-29T10:20:51.073Z,8.1
2018-12-29T10:21:52.445Z,8.1
2018-12-29T10:22:53.811Z,8.1
2018-12-29T10:23:55.183Z,8.2
2018-12-29T10:24:56.553Z,8.2
2018-12-29T10:25:57.924Z,8.2
2018-12-29T10:26:59.296Z,8.1
2018-12-29T10:28:00.666Z,8.0
2018-12-29T10:29:02.035Z,8.0
2018-12-29T10:30:03.407Z,8.1
2018-12-29T10:31:04.781Z,8.1
2018-12-29T10:32:06.154Z,8.2
2018-12-29T10:33:07.524Z,8.1
2018-12-29T10:34:08.886Z,8.1
2018-12-29T10:35:10.261Z,8.0
2018-12-29T10:36:11.632Z,8.1
2018-12-29T10:37:13.007Z,8.2
2018-12-29T10:38:14.395Z,8.2
2018-12-29T10:39:15.771Z,8.3
2018-12-29T10:40:17.160Z,8.3
2018-12-29T10:41:18.574Z,8.3
2018-12-29T10:42:19.945Z,8.3
2018-12-29T10:43:21.324Z,8.3
2018-12-29T10:44:22.696Z,8.4
2018-12-29T10:45:24.072Z,8.2
2018-12-29T10:46:25.444Z,8.1
2018-12-29T10:47:26.811Z,8.1
2018-12-29T10:48:28.180Z,8.1
2018-12-29T10:49:29.550Z,8.1
2018-12-29T10:50:30.920Z,8.2
2018-12-29T10:51:32.315Z,8.4
2018-12-29T10:52:33.684Z,8.4
2018-12-29T10:53:35.063Z,8.3
2018-12-29T10:54:36.430Z,8.4
2018-12-29T10:55:37.818Z,8.4
2018-12-29T10:56:39.210Z,8.4
2018-12-29T10:57:40.568Z,8.4
2018-12-29T10:58:41.954Z,8.4
2018-12-29T10:59:43.309Z,8.6
2018-12-29T11:00:44.711Z,8.6
2018-12-29T11:01:46.190Z,8.7
2018-12-29T11:02:47.562Z,8.7
2018-12-29T11:03:48.937Z,8.8
2018-12-29T11:04:50.305Z,8.7
2018-12-29T11:05:51.700Z,8.7
2018-12-29T11:06:53.094Z,8.7
2018-12-29T11:07:54.528Z,8.8
2018-12-29T11:08:55.908Z,8.9
2018-12-29T11:09:57.281Z,8.8
2018-12-29T11:10:58.694Z,8.8
2018-12-29T11:12:00.095Z,8.7
2018-12-29T11:13:01.471Z,8.8
2018-12-29T11:14:02.866Z,8.7
2018-12-29T11:15:04.252Z,8.8
2018-12-29T11:16:05.643Z,8.8
2018-12-29T11:17:07.038Z,9.0
2018-12-29T11:18:08.404Z,9.0
2018-12-29T11:19:09.812Z,8.9
2018-12-29T11:20:11.176Z,9.0
2018-12-29T11:21:12.551Z,8.9
2018-12-29T11:22:13.923Z,8.8
2018-12-29T11:23:15.291Z,8.8
2018-12-29T11:24:16.661Z,8.9
2018-12-29T11:25:18.030Z,8.8
2018-12-29T11:26:19.405Z,8.8
2018-12-29T11:27:20.775Z,8.7
2018-12-29T11:28:22.148Z,8.8
2018-12-29T11:29:23.530Z,8.8
2018-12-29T11:30:24.924Z,8.7
2018-12-29T11:31:26.345Z,8.7
2018-12-29T11:32:27.714Z,8.7
2018-12-29T11:33:29.101Z,8.8
2018-12-29T11:34:30.498Z,8.8
2018-12-29T11:35:31.873Z,8.7
2018-12-29T11:36:33.243Z,8.8
2018-12-29T11:37:34.668Z,8.8
2018-12-29T11:38:36.040Z,8.8
2018-12-29T11:39:37.451Z,8.8
2018-12-29T11:40:38.856Z,8.8
2018-12-29T11:41:40.498Z,8.8
2018-12-29T11:42:41.906Z,8.9
2018-12-29T11:43:43.309Z,8.8
2018-12-29T11:44:44.757Z,8.8
2018-12-29T11:45:46.152Z,8.7
2018-12-29T11:46:47.520Z,8.8
2018-12-29T11:47:50.000Z,8.7
2018-12-29T11:48:50.259Z,8.7
2018-12-29T11:49:51.592Z,8.8
2018-12-29T11:50:52.982Z,8.7
2018-12-29T11:51:54.348Z,8.8
2018-12-29T11:52:55.711Z,8.8
2018-12-29T11:53:57.101Z,8.9
2018-12-29T11:54:58.549Z,8.9
2018-12-29T11:55:59.919Z,9.1
2018-12-29T11:57:01.308Z,9.2
2018-12-29T11:58:02.693Z,9.2
2018-12-29T11:59:04.064Z,9.2
2018-12-29T12:00:05.441Z,9.0
2018-12-29T12:01:06.823Z,9.1
2018-12-29T12:02:08.158Z,9.1
2018-12-29T12:03:09.531Z,9.0
2018-12-29T12:04:10.906Z,9.2
2018-12-29T12:05:12.280Z,9.1
2018-12-29T12:06:13.649Z,9.0
2018-12-29T12:07:15.068Z,9.1
2018-12-29T12:08:16.433Z,9.1
2018-12-29T12:09:17.816Z,9.0
2018-12-29T12:10:19.224Z,9.1
2018-12-29T12:11:20.630Z,9.1
2018-12-29T12:12:22.011Z,9.0
2018-12-29T12:13:23.384Z,9.2
2018-12-29T12:14:24.776Z,9.1
2018-12-29T12:15:26.166Z,9.0
2018-12-29T12:16:27.582Z,9.1
2018-12-29T12:17:28.962Z,9.1
2018-12-29T12:18:30.363Z,9.1
2018-12-29T12:19:31.740Z,9.1
2018-12-29T12:20:33.109Z,9.0
2018-12-29T12:21:34.483Z,9.0
2018-12-29T12:22:35.844Z,9.0
2018-12-29T12:23:37.254Z,9.0
2018-12-29T12:24:38.588Z,9.0
2018-12-29T12:25:39.992Z,8.9
2018-12-29T12:26:41.368Z,8.9
2018-12-29T12:27:42.760Z,8.9
2018-12-29T12:28:44.098Z,9.0
2018-12-29T12:29:45.486Z,9.1
2018-12-29T12:30:46.854Z,9.0
2018-12-29T12:31:48.223Z,8.9
2018-12-29T12:32:49.596Z,8.9
2018-12-29T12:33:50.977Z,8.8
2018-12-29T12:34:52.358Z,8.8
2018-12-29T12:35:54.026Z,8.8
2018-12-29T12:36:55.367Z,8.8
2018-12-29T12:37:56.733Z,8.8
2018-12-29T12:38:58.104Z,8.9
2018-12-29T12:39:59.708Z,8.9
2018-12-29T12:41:01.510Z,8.8
2018-12-29T12:42:03.834Z,8.8
2018-12-29T12:43:06.030Z,8.8
2018-12-29T12:44:08.383Z,8.8
2018-12-29T12:45:10.413Z,8.8
2018-12-29T12:46:12.941Z,8.8
2018-12-29T12:47:15.172Z,8.8
2018-12-29T12:48:17.444Z,8.7
2018-12-29T12:49:19.387Z,8.7
2018-12-29T12:50:22.282Z,8.8
2018-12-29T12:51:24.577Z,8.8
2018-12-29T12:52:26.942Z,8.8
2018-12-29T12:53:29.593Z,8.7
2018-12-29T12:54:31.484Z,8.7
2018-12-29T12:55:33.762Z,8.7
2018-12-29T12:56:36.078Z,8.8
2018-12-29T12:57:38.755Z,8.8
2018-12-29T12:58:41.011Z,8.8
2018-12-29T12:59:43.732Z,8.8
2018-12-29T13:00:46.387Z,8.8
2018-12-29T13:01:48.491Z,8.8
2018-12-29T13:02:51.296Z,8.8
2018-12-29T13:03:53.779Z,8.7
2018-12-29T13:04:55.806Z,8.8
2018-12-29T13:05:58.843Z,8.8
2018-12-29T13:07:01.781Z,8.7
2018-12-29T13:08:03.878Z,8.7
2018-12-29T13:09:06.374Z,8.7
2018-12-29T13:10:09.042Z,8.7
2018-12-29T13:11:11.159Z,8.7
2018-12-29T13:12:13.762Z,8.8
2018-12-29T13:13:15.696Z,8.8
2018-12-29T13:14:17.947Z,8.8
2018-12-29T13:15:21.741Z,8.8
2018-12-29T13:16:22.496Z,8.8
2018-12-29T13:17:24.948Z,8.9
2018-12-29T13:18:27.143Z,8.9
2018-12-29T13:19:29.343Z,8.8
2018-12-29T13:20:31.511Z,8.8
2018-12-29T13:21:33.845Z,8.9
2018-12-29T13:22:35.773Z,8.7
2018-12-29T13:23:37.923Z,8.8
2018-12-29T13:24:39.989Z,8.8
2018-12-29T13:25:42.334Z,8.8
2018-12-29T13:26:44.716Z,8.8
2018-12-29T13:27:47.338Z,8.6
2018-12-29T13:28:49.416Z,8.8
2018-12-29T13:29:50.819Z,8.7
2018-12-29T13:30:52.269Z,8.6
2018-12-29T13:31:53.645Z,8.7
2018-12-29T13:32:55.171Z,8.6
2018-12-29T13:33:56.552Z,8.6
2018-12-29T13:34:57.963Z,8.6
2018-12-29T13:35:59.613Z,8.7
2018-12-29T13:37:00.999Z,8.7
2018-12-29T13:38:02.746Z,8.8
2018-12-29T13:39:04.185Z,8.8
2018-12-29T13:40:06.044Z,8.8
2018-12-29T13:41:07.451Z,8.8
2018-12-29T13:42:08.916Z,8.7
2018-12-29T13:43:10.421Z,8.6
2018-12-29T13:44:11.898Z,8.8
2018-12-29T13:45:13.446Z,8.7
2018-12-29T13:46:14.908Z,8.7
2018-12-29T13:47:17.072Z,8.7
2018-12-29T13:48:20.659Z,8.7
2018-12-29T13:49:21.139Z,8.8
2018-12-29T13:50:23.205Z,8.7
2018-12-29T13:51:25.235Z,8.7
2018-12-29T13:52:27.511Z,8.7
2018-12-29T13:53:29.358Z,8.7
2018-12-29T13:54:30.795Z,8.7
2018-12-29T13:55:32.202Z,8.8
2018-12-29T13:56:33.626Z,8.8
2018-12-29T13:57:35.262Z,8.8
2018-12-29T13:58:36.649Z,8.8
2018-12-29T13:59:38.412Z,8.7
2018-12-29T14:00:39.838Z,8.7
2018-12-29T14:01:41.223Z,8.7
2018-12-29T14:02:42.693Z,8.8
2018-12-29T14:03:44.135Z,8.7
2018-12-29T14:04:46.193Z,8.8
2018-12-29T14:05:47.659Z,8.7